Time;durP1;ratioP1;P1;durP2;ratioP2;P2;SDS_P1;SDS_P2;PMS_P1;PMS_P2;Temp;Humidity;BMP_temperature;BMP_pressure;BME280_temperature;BME280_humidity;BME280_pressure;Samples;Min_cycle;Max_cycle;Signal;HPM_P1;HPM_P2
2023/12/23 00:02:20;;;;;;;6.30;1.60;;;8.60;99.90;;;;;;5052239;28;20702;-69
2023/12/23 00:04:45;;;;;;;3.60;1.33;;;8.50;99.90;;;;;;5052165;28;20169;-69
2023/12/23 00:07:14;;;;;;;5.47;1.60;;;8.30;99.90;;;;;;5051733;28;20344;-69
2023/12/23 00:09:41;;;;;;;2.70;1.70;;;8.20;99.90;;;;;;5052297;28;20630;-69
2023/12/23 00:12:10;;;;;;;3.87;2.70;;;8.20;99.90;;;;;;5052196;28;20474;-69
2023/12/23 00:14:36;;;;;;;3.23;1.20;;;8.10;99.90;;;;;;5052356;28;20416;-69
2023/12/23 00:17:02;;;;;;;1.90;1.60;;;8.10;99.90;;;;;;5055617;22;20488;-70
2023/12/23 00:19:28;;;;;;;2.70;1.50;;;8.00;99.90;;;;;;5032126;28;20456;-70
2023/12/23 00:21:54;;;;;;;3.67;1.50;;;8.00;99.90;;;;;;5032050;28;20445;-68
2023/12/23 00:24:20;;;;;;;2.37;1.20;;;8.00;99.90;;;;;;5032236;28;20409;-68
2023/12/23 00:26:46;;;;;;;6.00;1.60;;;8.00;99.90;;;;;;5031642;28;20456;-68
2023/12/23 00:29:11;;;;;;;3.30;1.43;;;8.00;99.90;;;;;;5032144;28;20432;-68
2023/12/23 00:31:37;;;;;;;4.30;2.13;;;8.10;99.90;;;;;;5032124;28;20166;-68
2023/12/23 00:34:02;;;;;;;2.03;1.73;;;8.10;99.90;;;;;;5031969;28;20252;-68
2023/12/23 00:36:28;;;;;;;9.00;2.23;;;8.20;99.90;;;;;;5031773;28;20197;-68
2023/12/23 00:38:53;;;;;;;2.43;1.50;;;8.20;99.90;;;;;;5031866;28;20186;-70
2023/12/23 00:41:19;;;;;;;3.03;1.40;;;8.10;99.90;;;;;;5014350;28;20555;-71
2023/12/23 00:43:44;;;;;;;4.20;1.80;;;8.00;99.90;;;;;;5031929;28;20180;-70
2023/12/23 00:46:10;;;;;;;5.73;2.00;;;7.90;99.90;;;;;;5031828;28;20230;-70
2023/12/23 00:48:36;;;;;;;6.73;2.23;;;7.80;99.90;;;;;;5034919;28;20171;-70
2023/12/23 00:51:02;;;;;;;2.40;1.40;;;7.80;99.90;;;;;;5036024;28;20189;-70
2023/12/23 00:53:27;;;;;;;5.07;2.73;;;7.80;99.90;;;;;;5035734;28;20910;-68
2023/12/23 00:55:53;;;;;;;2.93;1.80;;;7.70;99.90;;;;;;5035681;28;20171;-68
2023/12/23 00:58:18;;;;;;;1.80;1.70;;;7.70;99.90;;;;;;5035462;28;20687;-69
2023/12/23 01:00:44;;;;;;;4.37;1.50;;;7.70;99.90;;;;;;5035635;28;20190;-69
2023/12/23 01:03:09;;;;;;;3.23;1.33;;;7.70;99.90;;;;;;5035592;28;20181;-68
2023/12/23 01:05:35;;;;;;;4.37;1.57;;;7.70;99.90;;;;;;5035588;28;20642;-68
2023/12/23 01:08:00;;;;;;;6.93;1.60;;;7.70;99.90;;;;;;5017436;28;20206;-68
2023/12/23 01:10:26;;;;;;;2.97;1.40;;;7.60;99.90;;;;;;5035666;28;20171;-69
2023/12/23 01:12:53;;;;;;;3.83;1.23;;;7.60;99.90;;;;;;5035857;28;20628;-68
2023/12/23 01:15:18;;;;;;;2.23;1.67;;;7.60;99.90;;;;;;5035366;28;20445;-69
2023/12/23 01:17:44;;;;;;;3.17;1.70;;;7.60;99.90;;;;;;5034921;28;20510;-69
2023/12/23 01:20:11;;;;;;;2.47;1.03;;;7.60;99.90;;;;;;5017603;28;20223;-69
2023/12/23 01:22:37;;;;;;;2.50;1.40;;;7.50;99.90;;;;;;5035167;28;20428;-69
2023/12/23 01:25:03;;;;;;;6.30;1.20;;;7.50;99.90;;;;;;5035266;28;20428;-68
2023/12/23 01:27:28;;;;;;;1.60;1.30;;;7.50;99.90;;;;;;5034835;28;20989;-69
2023/12/23 01:29:54;;;;;;;6.00;1.40;;;7.60;99.90;;;;;;5035173;28;20185;-68
2023/12/23 01:32:20;;;;;;;2.30;0.93;;;7.60;99.90;;;;;;5035239;28;20166;-69
2023/12/23 01:34:46;;;;;;;4.10;1.07;;;7.50;99.90;;;;;;5035010;28;20421;-68
2023/12/23 01:37:12;;;;;;;1.60;1.10;;;7.50;99.90;;;;;;5034596;28;20515;-69
2023/12/23 01:39:37;;;;;;;3.43;1.00;;;7.40;99.90;;;;;;5034981;28;20221;-69
2023/12/23 01:42:03;;;;;;;2.60;1.27;;;7.40;99.90;;;;;;5034910;28;20179;-69
2023/12/23 01:44:28;;;;;;;2.63;1.20;;;7.40;99.90;;;;;;5034889;28;20174;-68
2023/12/23 01:46:55;;;;;;;1.33;1.00;;;7.30;99.90;;;;;;5034214;28;20198;-69
2023/12/23 01:49:21;;;;;;;1.90;1.33;;;7.30;99.90;;;;;;5034700;28;20224;-69
2023/12/23 01:51:49;;;;;;;2.33;1.37;;;7.40;99.90;;;;;;5034497;28;20421;-68
2023/12/23 01:54:15;;;;;;;3.70;2.33;;;7.40;99.90;;;;;;5034573;28;20813;-68
2023/12/23 01:56:42;;;;;;;3.50;1.30;;;7.40;99.90;;;;;;5016516;28;20460;-69
2023/12/23 01:59:07;;;;;;;4.70;1.50;;;7.40;99.90;;;;;;5034257;28;20208;-68
2023/12/23 02:01:34;;;;;;;3.23;1.93;;;7.40;99.90;;;;;;5034653;28;20417;-69
2023/12/23 02:04:00;;;;;;;3.83;2.27;;;7.50;99.90;;;;;;5034674;28;20177;-69
2023/12/23 02:06:25;;;;;;;2.33;1.90;;;7.50;99.90;;;;;;5034088;28;20499;-70
2023/12/23 02:08:51;;;;;;;5.80;2.20;;;7.50;99.90;;;;;;5034453;28;20417;-69
2023/12/23 02:11:31;;;;;;;4.13;1.80;;;7.40;99.90;;;;;;5034518;28;20654;-69
2023/12/23 02:14:06;;;;;;;5.43;2.03;;;7.40;99.90;;;;;;5034499;28;20167;-69
2023/12/23 02:16:33;;;;;;;8.40;3.47;;;7.40;99.90;;;;;;5033992;28;20452;-68
2023/12/23 02:18:59;;;;;;;6.40;1.83;;;7.40;99.90;;;;;;5034151;28;20515;-69
2023/12/23 02:21:24;;;;;;;2.80;1.80;;;7.40;99.90;;;;;;5034179;28;20562;-69
2023/12/23 02:23:50;;;;;;;5.40;2.03;;;7.40;99.90;;;;;;5034141;28;20179;-68
2023/12/23 02:26:19;;;;;;;5.77;2.13;;;7.40;99.90;;;;;;5033859;28;20206;-69
2023/12/23 02:28:51;;;;;;;3.60;2.27;;;7.40;99.90;;;;;;5033903;28;20177;-69
2023/12/23 02:31:18;;;;;;;6.53;1.80;;;7.40;99.90;;;;;;5033866;28;20416;-68
2023/12/23 02:33:45;;;;;;;2.57;1.60;;;7.40;99.90;;;;;;5016188;28;20421;-68
2023/12/23 02:36:10;;;;;;;4.90;1.63;;;7.40;99.90;;;;;;5033941;28;20531;-69
2023/12/23 02:38:36;;;;;;;6.13;1.93;;;7.40;99.90;;;;;;5033571;28;20449;-69
2023/12/23 02:41:01;;;;;;;2.97;1.70;;;7.40;99.90;;;;;;5033779;28;20174;-69
2023/12/23 02:43:27;;;;;;;2.20;2.00;;;7.40;99.90;;;;;;5033946;28;20185;-70
2023/12/23 02:45:52;;;;;;;4.20;1.43;;;7.40;99.90;;;;;;5033523;28;20254;-71
2023/12/23 02:48:18;;;;;;;5.10;1.60;;;7.40;99.90;;;;;;5015791;28;20236;-70
2023/12/23 02:50:43;;;;;;;4.70;1.40;;;7.40;99.90;;;;;;5015915;28;20548;-71
2023/12/23 02:53:09;;;;;;;2.63;1.27;;;7.40;99.90;;;;;;5033544;28;20179;-71
2023/12/23 02:55:36;;;;;;;2.87;1.30;;;7.40;99.90;;;;;;5033772;28;20175;-71
2023/12/23 02:58:02;;;;;;;3.87;1.20;;;7.40;99.90;;;;;;5033119;28;20542;-71
2023/12/23 03:00:27;;;;;;;1.97;1.20;;;7.40;99.90;;;;;;5033520;28;20507;-71
2023/12/23 03:02:53;;;;;;;3.23;1.43;;;7.40;99.90;;;;;;5033469;28;20261;-71
2023/12/23 03:05:18;;;;;;;6.67;1.60;;;7.40;99.90;;;;;;5033393;28;20227;-71
2023/12/23 03:07:44;;;;;;;1.53;1.13;;;7.40;99.90;;;;;;5033008;28;20206;-70
2023/12/23 03:10:09;;;;;;;2.83;1.57;;;7.50;99.90;;;;;;5032573;28;20197;-71
2023/12/23 03:12:35;;;;;;;2.17;1.87;;;7.40;99.90;;;;;;5033222;28;20176;-71
2023/12/23 03:15:00;;;;;;;3.10;1.53;;;7.40;99.90;;;;;;5033264;28;20188;-71
2023/12/23 03:17:27;;;;;;;2.60;1.37;;;7.40;99.90;;;;;;5032715;28;20356;-71
2023/12/23 03:19:55;;;;;;;3.13;2.07;;;7.40;99.90;;;;;;5033118;28;20174;-71
2023/12/23 03:22:21;;;;;;;2.00;1.80;;;7.40;99.90;;;;;;5033087;28;20460;-71
2023/12/23 03:24:47;;;;;;;4.00;1.93;;;7.40;99.90;;;;;;5033082;28;20444;-71
2023/12/23 03:27:12;;;;;;;8.13;2.10;;;7.50;99.90;;;;;;5014934;28;20322;-71
2023/12/23 03:29:38;;;;;;;4.10;1.67;;;7.50;99.90;;;;;;5015291;28;20174;-70
2023/12/23 03:32:03;;;;;;;3.40;1.40;;;7.40;99.90;;;;;;5032749;28;20174;-71
2023/12/23 03:34:29;;;;;;;2.60;1.67;;;7.40;99.90;;;;;;5033026;28;20174;-70
2023/12/23 03:36:54;;;;;;;5.23;1.43;;;7.50;99.90;;;;;;5032482;28;20601;-71
2023/12/23 03:39:20;;;;;;;2.17;1.80;;;7.50;99.90;;;;;;5032795;28;20174;-70
2023/12/23 03:41:45;;;;;;;1.73;1.40;;;7.50;99.90;;;;;;5032709;28;20262;-71
2023/12/23 03:44:11;;;;;;;2.13;1.37;;;7.50;99.90;;;;;;5032573;28;20175;-70
2023/12/23 03:46:36;;;;;;;1.73;1.30;;;7.50;99.90;;;;;;5032192;28;20204;-71
2023/12/23 03:49:02;;;;;;;2.80;1.70;;;7.50;99.90;;;;;;5032636;28;20257;-71
2023/12/23 03:51:27;;;;;;;5.80;2.67;;;7.50;99.90;;;;;;5032489;28;20740;-71
2023/12/23 03:53:53;;;;;;;1.80;1.50;;;7.50;99.90;;;;;;5032555;28;20661;-71
2023/12/23 03:56:18;;;;;;;4.30;1.40;;;7.60;99.90;;;;;;5032241;28;20566;-71
2023/12/23 03:58:44;;;;;;;2.93;1.30;;;7.70;99.90;;;;;;5032238;28;20257;-71
2023/12/23 04:01:10;;;;;;;3.80;2.53;;;7.70;99.90;;;;;;5032387;28;20623;-71
2023/12/23 04:03:36;;;;;;;2.30;1.10;;;7.80;99.90;;;;;;5032396;28;20635;-71
2023/12/23 04:06:02;;;;;;;2.77;1.23;;;7.80;99.90;;;;;;5032235;28;20471;-71
2023/12/23 04:08:27;;;;;;;2.60;1.57;;;7.80;99.90;;;;;;5032176;28;20193;-70
2023/12/23 04:10:53;;;;;;;1.43;1.33;;;7.80;99.90;;;;;;5032255;28;20914;-71
2023/12/23 04:13:18;;;;;;;2.60;1.57;;;7.80;99.90;;;;;;5014644;28;20754;-71
2023/12/23 04:15:44;;;;;;;4.07;1.47;;;7.80;99.90;;;;;;5032137;28;20172;-71
2023/12/23 04:18:10;;;;;;;2.67;1.30;;;7.80;99.90;;;;;;5014132;28;20196;-70
2023/12/23 04:20:35;;;;;;;3.10;1.20;;;7.80;99.90;;;;;;5032057;28;20178;-70
2023/12/23 04:23:01;;;;;;;1.37;1.27;;;7.80;99.90;;;;;;5032194;28;20175;-71
2023/12/23 04:25:26;;;;;;;2.83;1.60;;;7.80;99.90;;;;;;5032164;28;20181;-71
2023/12/23 04:27:53;;;;;;;2.80;1.50;;;7.80;99.90;;;;;;5031799;28;20206;-71
2023/12/23 04:30:19;;;;;;;2.63;1.43;;;7.80;99.90;;;;;;5032199;28;20169;-71
2023/12/23 04:32:44;;;;;;;3.23;1.17;;;7.70;99.90;;;;;;5031974;28;20413;-71
2023/12/23 04:35:10;;;;;;;1.83;1.20;;;7.80;99.90;;;;;;5032054;28;20248;-70
2023/12/23 04:37:41;;;;;;;1.67;1.23;;;7.80;99.90;;;;;;5031538;28;20202;-71
2023/12/23 04:40:07;;;;;;;0.80;0.80;;;7.80;99.90;;;;;;5032140;28;20538;-71
2023/12/23 04:42:33;;;;;;;2.27;1.70;;;7.80;99.90;;;;;;5032042;28;20515;-70
2023/12/23 04:44:58;;;;;;;5.73;1.40;;;7.80;99.90;;;;;;5031968;28;20528;-71
2023/12/23 04:47:24;;;;;;;3.63;1.13;;;7.90;99.90;;;;;;5031470;28;20198;-70
2023/12/23 04:49:49;;;;;;;2.43;1.00;;;7.90;99.90;;;;;;5031838;28;20534;-70
2023/12/23 04:52:15;;;;;;;1.63;1.10;;;7.90;99.90;;;;;;5031866;28;20174;-70
2023/12/23 04:54:41;;;;;;;2.23;1.90;;;7.90;99.90;;;;;;5031946;28;20257;-70
2023/12/23 04:57:06;;;;;;;1.10;0.70;;;8.00;99.90;;;;;;5031609;28;20205;-70
2023/12/23 04:59:32;;;;;;;2.13;0.90;;;8.00;99.90;;;;;;5031736;28;20546;-71
2023/12/23 05:01:57;;;;;;;3.60;0.90;;;8.00;99.90;;;;;;5031826;28;20224;-70
2023/12/23 05:04:23;;;;;;;0.90;0.70;;;8.00;99.90;;;;;;5031958;28;20170;-71
2023/12/23 05:06:48;;;;;;;2.10;1.23;;;8.00;99.90;;;;;;5013549;28;20230;-71
2023/12/23 05:09:14;;;;;;;1.57;0.70;;;8.00;99.90;;;;;;5031700;28;20253;-70
2023/12/23 05:11:40;;;;;;;1.40;1.20;;;8.10;99.90;;;;;;5031735;28;20169;-70
2023/12/23 05:14:05;;;;;;;0.93;0.90;;;8.10;99.90;;;;;;5031713;28;20714;-69
2023/12/23 05:16:31;;;;;;;1.27;0.80;;;8.10;99.90;;;;;;5031252;28;20233;-68
2023/12/23 05:18:56;;;;;;;2.63;0.80;;;8.10;99.90;;;;;;5031653;28;20181;-69
2023/12/23 05:21:22;;;;;;;0.70;0.60;;;8.20;99.90;;;;;;5031491;28;20262;-68
2023/12/23 05:23:48;;;;;;;1.00;0.87;;;8.10;99.90;;;;;;5031570;28;20174;-68
2023/12/23 05:26:20;;;;;;;2.17;0.90;;;8.10;99.90;;;;;;5031293;28;20644;-69
2023/12/23 05:28:45;;;;;;;1.93;0.70;;;8.00;99.90;;;;;;5031511;28;20407;-68
2023/12/23 05:31:11;;;;;;;0.47;0.47;;;8.10;99.90;;;;;;5031569;28;20421;-68
2023/12/23 05:33:36;;;;;;;2.10;1.23;;;8.10;99.90;;;;;;5033168;28;20870;-68
2023/12/23 05:36:02;;;;;;;1.07;0.60;;;8.10;99.90;;;;;;5035077;28;20674;-68
2023/12/23 05:38:27;;;;;;;1.00;0.90;;;8.10;99.90;;;;;;5034822;28;20166;-68
2023/12/23 05:40:53;;;;;;;0.80;0.80;;;8.10;99.90;;;;;;5034896;28;20719;-68
2023/12/23 05:43:18;;;;;;;0.97;0.60;;;8.10;99.90;;;;;;5034840;28;20174;-68
2023/12/23 05:45:44;;;;;;;1.37;0.60;;;8.00;99.90;;;;;;5034897;28;20510;-68
2023/12/23 05:48:09;;;;;;;0.70;0.50;;;8.00;99.90;;;;;;5016349;28;20194;-68
2023/12/23 05:50:35;;;;;;;2.50;0.67;;;7.90;99.90;;;;;;5034734;28;20188;-68
2023/12/23 05:53:07;;;;;;;1.17;0.50;;;7.80;99.90;;;;;;5028863;28;20233;-70
2023/12/23 05:55:33;;;;;;;1.57;0.50;;;7.70;99.90;;;;;;5014982;28;20174;-70
2023/12/23 05:57:59;;;;;;;0.60;0.50;;;7.50;99.90;;;;;;5014572;28;20464;-70
2023/12/23 06:00:24;;;;;;;0.60;0.60;;;7.50;99.90;;;;;;5014971;28;20178;-70
2023/12/23 06:02:50;;;;;;;2.10;0.53;;;7.40;99.90;;;;;;5014983;28;20175;-68
2023/12/23 06:05:15;;;;;;;1.13;0.67;;;7.30;99.90;;;;;;5014441;28;20616;-68
2023/12/23 06:07:41;;;;;;;1.17;0.60;;;7.30;99.90;;;;;;5014300;28;20627;-68
2023/12/23 06:10:07;;;;;;;0.40;0.40;;;7.30;99.90;;;;;;5014621;28;20201;-68
2023/12/23 06:12:32;;;;;;;0.70;0.50;;;7.30;99.90;;;;;;5014753;28;20171;-68
2023/12/23 06:14:58;;;;;;;0.50;0.50;;;7.30;99.90;;;;;;5014566;28;20432;-69
2023/12/23 06:17:25;;;;;;;0.67;0.40;;;7.30;99.90;;;;;;5037914;23;20222;-69
2023/12/23 06:19:50;;;;;;;0.77;0.40;;;7.30;99.90;;;;;;5034188;28;20740;-69
2023/12/23 06:22:16;;;;;;;0.40;0.40;;;7.30;99.90;;;;;;5034330;28;20456;-68
2023/12/23 06:24:41;;;;;;;2.77;0.70;;;7.30;99.90;;;;;;5034329;28;20178;-69
2023/12/23 06:27:07;;;;;;;0.80;0.50;;;7.20;99.90;;;;;;5033775;28;20295;-70
2023/12/23 06:29:32;;;;;;;0.50;0.40;;;7.30;99.90;;;;;;5032840;28;20182;-68
2023/12/23 06:31:59;;;;;;;0.40;0.40;;;7.20;99.90;;;;;;5034102;28;20178;-68
2023/12/23 06:34:25;;;;;;;0.40;0.40;;;7.30;99.90;;;;;;5034022;28;20257;-69
2023/12/23 06:36:51;;;;;;;0.60;0.50;;;7.30;99.90;;;;;;5033648;28;21005;-69
2023/12/23 06:39:16;;;;;;;0.47;0.40;;;7.30;99.90;;;;;;5033844;28;20183;-69
2023/12/23 06:41:42;;;;;;;0.50;0.40;;;7.30;99.90;;;;;;5033768;28;20261;-69
2023/12/23 06:44:07;;;;;;;1.00;0.60;;;7.40;99.90;;;;;;5033259;28;20273;-69
2023/12/23 06:46:32;;;;;;;0.60;0.60;;;7.40;99.90;;;;;;5033169;28;20229;-68
2023/12/23 06:48:58;;;;;;;1.07;0.40;;;7.40;99.90;;;;;;5033886;28;20177;-69
2023/12/23 06:51:24;;;;;;;0.50;0.40;;;7.40;99.90;;;;;;5033726;28;20212;-69
2023/12/23 06:53:49;;;;;;;0.50;0.50;;;7.40;99.90;;;;;;5033846;28;20261;-69
2023/12/23 06:56:15;;;;;;;0.50;0.40;;;7.40;99.90;;;;;;5033341;28;20166;-69
2023/12/23 06:58:41;;;;;;;2.77;0.50;;;7.40;99.90;;;;;;5033325;28;20224;-69
2023/12/23 07:01:06;;;;;;;0.50;0.50;;;7.50;99.90;;;;;;5033542;28;20249;-69
2023/12/23 07:03:32;;;;;;;0.60;0.60;;;7.50;99.90;;;;;;5032174;28;20265;-68
2023/12/23 07:05:57;;;;;;;0.40;0.40;;;7.50;99.90;;;;;;5033236;28;20206;-69
2023/12/23 07:08:23;;;;;;;0.77;0.60;;;7.50;99.90;;;;;;5033054;28;20569;-68
2023/12/23 07:10:50;;;;;;;0.57;0.57;;;7.50;99.90;;;;;;5033401;28;20178;-69
2023/12/23 07:13:15;;;;;;;0.50;0.50;;;7.40;99.90;;;;;;5033283;28;20167;-69
2023/12/23 07:15:41;;;;;;;1.03;0.50;;;7.40;99.90;;;;;;5032665;28;20963;-69
2023/12/23 07:18:07;;;;;;;0.77;0.57;;;7.40;99.90;;;;;;5032853;28;20210;-70
2023/12/23 07:20:33;;;;;;;0.53;0.50;;;7.30;99.90;;;;;;5033205;28;20643;-68
2023/12/23 07:22:58;;;;;;;0.80;0.50;;;7.30;99.90;;;;;;5033244;28;20420;-69
2023/12/23 07:25:24;;;;;;;0.70;0.60;;;7.30;99.90;;;;;;5032909;28;20182;-69
2023/12/23 07:27:49;;;;;;;0.57;0.57;;;7.30;99.90;;;;;;5032841;28;20316;-68
2023/12/23 07:30:15;;;;;;;0.50;0.40;;;7.40;99.90;;;;;;5033028;28;20182;-68
2023/12/23 07:32:41;;;;;;;0.60;0.53;;;7.40;99.90;;;;;;5032953;28;20166;-69
2023/12/23 07:35:07;;;;;;;1.70;0.50;;;7.40;99.90;;;;;;5032860;28;20675;-69
2023/12/23 07:37:32;;;;;;;0.40;0.40;;;7.40;99.90;;;;;;5032456;28;20511;-69
2023/12/23 07:39:58;;;;;;;0.90;0.70;;;7.40;99.90;;;;;;5032644;28;20182;-69
2023/12/23 07:42:24;;;;;;;0.90;0.70;;;7.40;99.90;;;;;;5032733;28;20182;-68
2023/12/23 07:44:49;;;;;;;1.03;0.70;;;7.50;99.90;;;;;;5032604;28;20691;-69
2023/12/23 07:47:15;;;;;;;1.00;0.87;;;7.50;99.90;;;;;;5032226;28;20233;-69
2023/12/23 07:49:40;;;;;;;0.87;0.87;;;7.40;99.90;;;;;;5032733;28;20171;-69
2023/12/23 07:52:08;;;;;;;0.73;0.70;;;7.50;99.90;;;;;;5032640;28;20182;-69
2023/12/23 07:54:34;;;;;;;0.60;0.60;;;7.40;99.90;;;;;;5032405;28;20201;-69
2023/12/23 07:56:59;;;;;;;1.27;0.67;;;7.40;99.90;;;;;;5032076;28;20464;-68
2023/12/23 07:59:25;;;;;;;0.87;0.50;;;7.40;99.90;;;;;;5032400;28;20170;-69
2023/12/23 08:01:50;;;;;;;0.60;0.60;;;7.50;99.90;;;;;;5031046;28;20193;-68
2023/12/23 08:04:16;;;;;;;1.23;0.50;;;7.50;99.90;;;;;;5032455;28;20170;-69
2023/12/23 08:06:42;;;;;;;0.70;0.70;;;7.50;99.90;;;;;;5031963;28;20209;-69
2023/12/23 08:09:08;;;;;;;1.13;0.83;;;7.50;99.90;;;;;;5032257;28;20170;-69
2023/12/23 08:11:34;;;;;;;0.70;0.70;;;7.50;99.90;;;;;;5032203;28;20169;-69
2023/12/23 08:14:01;;;;;;;0.90;0.70;;;7.50;99.90;;;;;;5032245;28;20439;-69
2023/12/23 08:16:26;;;;;;;0.80;0.70;;;7.50;99.90;;;;;;5031710;28;20441;-69
2023/12/23 08:18:52;;;;;;;0.83;0.73;;;7.50;99.90;;;;;;5032347;28;20417;-69
2023/12/23 08:21:17;;;;;;;0.50;0.50;;;7.60;99.90;;;;;;5032264;28;20253;-68
2023/12/23 08:23:43;;;;;;;0.63;0.50;;;7.60;99.90;;;;;;5032096;28;20196;-69
2023/12/23 08:26:08;;;;;;;2.20;0.70;;;7.70;99.90;;;;;;5032110;28;20177;-69
2023/12/23 08:28:34;;;;;;;0.73;0.50;;;7.70;99.90;;;;;;5031822;28;20174;-68
2023/12/23 08:31:02;;;;;;;1.13;0.57;;;7.80;99.90;;;;;;5031954;28;20177;-68
2023/12/23 08:33:28;;;;;;;0.60;0.43;;;7.80;99.90;;;;;;5032008;28;20174;-68
2023/12/23 08:35:56;;;;;;;1.63;0.50;;;7.80;99.90;;;;;;5032022;28;20495;-69
2023/12/23 08:38:22;;;;;;;0.50;0.50;;;7.80;99.90;;;;;;5031590;28;20476;-68
2023/12/23 08:40:48;;;;;;;1.10;0.70;;;7.90;99.90;;;;;;5031976;28;20413;-68
2023/12/23 08:43:13;;;;;;;1.30;0.60;;;7.90;99.90;;;;;;5031906;28;20178;-68
2023/12/23 08:45:39;;;;;;;0.60;0.50;;;7.90;99.90;;;;;;5031990;28;20168;-69
2023/12/23 08:48:05;;;;;;;1.27;0.63;;;7.90;99.90;;;;;;5031609;28;20324;-68
2023/12/23 08:50:30;;;;;;;0.70;0.70;;;8.00;99.90;;;;;;5031901;28;20166;-69
2023/12/23 08:52:56;;;;;;;0.77;0.73;;;8.00;99.90;;;;;;5031693;28;20167;-69
2023/12/23 08:55:21;;;;;;;0.60;0.60;;;8.00;99.90;;;;;;5031868;28;20185;-69
2023/12/23 08:57:47;;;;;;;1.00;0.53;;;8.00;99.90;;;;;;5031512;28;20198;-69
2023/12/23 09:00:13;;;;;;;0.90;0.60;;;8.00;99.90;;;;;;5031916;28;20174;-69
2023/12/23 09:02:38;;;;;;;0.70;0.60;;;8.10;99.90;;;;;;5031719;28;20182;-69
2023/12/23 09:05:04;;;;;;;0.90;0.40;;;8.10;99.90;;;;;;5031795;28;20425;-69
2023/12/23 09:07:30;;;;;;;0.60;0.60;;;8.10;99.90;;;;;;5031184;28;20206;-68
2023/12/23 09:09:55;;;;;;;0.50;0.50;;;8.10;99.90;;;;;;5035383;28;20478;-68
2023/12/23 09:12:21;;;;;;;0.70;0.70;;;8.10;99.90;;;;;;5035640;28;20217;-69
2023/12/23 09:14:49;;;;;;;0.60;0.60;;;8.20;99.90;;;;;;5035474;28;20647;-69
2023/12/23 09:17:15;;;;;;;0.50;0.50;;;8.20;99.90;;;;;;5034525;28;20210;-69
2023/12/23 09:19:40;;;;;;;0.90;0.60;;;8.20;99.90;;;;;;5035625;28;21013;-69
2023/12/23 09:22:06;;;;;;;1.03;1.03;;;8.30;99.90;;;;;;5034124;28;20424;-69
2023/12/23 09:24:31;;;;;;;0.70;0.70;;;8.30;99.90;;;;;;5035374;28;20175;-69
2023/12/23 09:26:57;;;;;;;0.60;0.50;;;8.30;99.90;;;;;;5034867;28;20206;-69
2023/12/23 09:29:22;;;;;;;0.40;0.40;;;8.30;99.90;;;;;;5035513;28;20189;-68
2023/12/23 09:31:48;;;;;;;0.50;0.50;;;8.40;99.90;;;;;;5035280;28;20162;-69
2023/12/23 09:34:13;;;;;;;1.27;0.50;;;8.40;99.90;;;;;;5035139;28;20177;-69
2023/12/23 09:36:39;;;;;;;0.90;0.60;;;8.50;99.90;;;;;;5034772;28;20197;-69
2023/12/23 09:39:04;;;;;;;0.60;0.60;;;8.50;99.90;;;;;;5035090;28;20168;-69
2023/12/23 09:41:32;;;;;;;0.50;0.50;;;8.50;99.90;;;;;;5035107;28;20220;-69
2023/12/23 09:43:57;;;;;;;0.83;0.60;;;8.50;99.90;;;;;;5035158;28;20174;-69
2023/12/23 09:46:23;;;;;;;0.80;0.70;;;8.50;99.90;;;;;;5034451;28;20789;-69
2023/12/23 09:48:49;;;;;;;4.00;1.37;;;8.40;99.90;;;;;;5034858;28;20536;-69
2023/12/23 09:51:19;;;;;;;0.97;0.73;;;8.40;99.90;;;;;;5034897;28;20417;-69
2023/12/23 09:53:47;;;;;;;0.70;0.70;;;8.50;99.90;;;;;;5034820;28;20171;-69
2023/12/23 09:56:13;;;;;;;0.60;0.60;;;8.50;99.90;;;;;;5034671;28;20831;-70
2023/12/23 09:58:40;;;;;;;0.90;0.57;;;8.50;99.90;;;;;;5034570;28;20419;-69
2023/12/23 10:01:06;;;;;;;0.50;0.50;;;8.50;99.90;;;;;;5035120;28;20449;-68
2023/12/23 10:03:31;;;;;;;0.73;0.67;;;8.50;99.90;;;;;;5034645;28;20451;-69
2023/12/23 10:06:01;;;;;;;0.60;0.50;;;8.50;99.90;;;;;;5034485;28;20175;-69
2023/12/23 10:08:28;;;;;;;0.60;0.50;;;8.50;99.90;;;;;;5034299;28;20222;-69
2023/12/23 10:10:53;;;;;;;1.00;0.60;;;8.60;99.90;;;;;;5034403;28;20417;-69
2023/12/23 10:13:19;;;;;;;0.97;0.90;;;8.60;99.90;;;;;;5034426;28;20781;-69
2023/12/23 10:15:45;;;;;;;1.13;0.60;;;8.70;99.90;;;;;;5033986;28;20651;-69
2023/12/23 10:18:11;;;;;;;0.70;0.70;;;8.70;99.90;;;;;;5033970;28;20458;-69
2023/12/23 10:20:37;;;;;;;0.53;0.53;;;8.70;99.90;;;;;;5034093;28;20182;-69
2023/12/23 10:23:03;;;;;;;0.97;0.87;;;8.70;99.90;;;;;;5034082;28;20555;-69
2023/12/23 10:25:29;;;;;;;2.83;0.60;;;8.60;99.90;;;;;;5034304;28;20181;-68
2023/12/23 10:27:59;;;;;;;0.80;0.60;;;8.60;99.90;;;;;;5033737;28;20232;-69
2023/12/23 10:30:27;;;;;;;0.40;0.40;;;8.60;99.90;;;;;;5034179;28;20910;-69
2023/12/23 10:32:54;;;;;;;1.27;0.53;;;8.60;99.90;;;;;;5034131;28;20424;-69
2023/12/23 10:35:19;;;;;;;0.70;0.70;;;8.60;99.90;;;;;;5034034;28;20424;-69
2023/12/23 10:37:46;;;;;;;0.60;0.50;;;8.60;99.90;;;;;;5032699;28;20448;-69
2023/12/23 10:40:17;;;;;;;0.50;0.50;;;8.60;99.90;;;;;;5033878;28;20253;-68
2023/12/23 10:42:44;;;;;;;0.50;0.50;;;8.50;99.90;;;;;;5033994;28;20467;-70
2023/12/23 10:45:12;;;;;;;0.70;0.47;;;8.50;99.90;;;;;;5033876;28;20417;-70
2023/12/23 10:47:39;;;;;;;0.70;0.70;;;8.50;99.90;;;;;;5033288;28;20460;-70
2023/12/23 10:50:06;;;;;;;0.53;0.50;;;8.40;99.90;;;;;;5033660;28;20456;-70
2023/12/23 10:52:33;;;;;;;1.00;0.47;;;8.40;99.90;;;;;;5033610;28;20425;-70
2023/12/23 10:55:02;;;;;;;0.90;0.50;;;8.40;99.90;;;;;;5033748;28;20424;-70
2023/12/23 10:57:30;;;;;;;0.60;0.50;;;8.40;99.90;;;;;;5033218;28;20499;-69
2023/12/23 10:59:55;;;;;;;0.70;0.60;;;8.30;99.90;;;;;;5033661;28;20421;-70
2023/12/23 11:02:34;;;;;;;1.33;0.90;;;8.40;99.90;;;;;;5033453;28;20459;-70
2023/12/23 11:05:05;;;;;;;0.50;0.50;;;8.40;99.90;;;;;;5033356;28;20230;-70
2023/12/23 11:07:45;;;;;;;7.20;1.30;;;8.40;99.90;;;;;;5032910;28;20460;-70
2023/12/23 11:10:13;;;;;;;0.80;0.63;;;8.40;99.90;;;;;;5033521;28;20437;-70
2023/12/23 11:12:39;;;;;;;0.47;0.47;;;8.40;99.90;;;;;;5033330;28;20777;-70
2023/12/23 11:15:05;;;;;;;1.50;1.10;;;8.50;99.90;;;;;;5032740;28;20417;-70
2023/12/23 11:17:31;;;;;;;0.70;0.70;;;8.50;99.90;;;;;;5032630;28;20217;-70
2023/12/23 11:20:01;;;;;;;1.03;0.93;;;8.50;99.90;;;;;;5033123;28;20429;-70
2023/12/23 11:22:29;;;;;;;0.83;0.83;;;8.50;99.90;;;;;;5033089;28;20434;-70
2023/12/23 11:24:55;;;;;;;0.80;0.80;;;8.50;99.90;;;;;;5033164;28;20432;-70
2023/12/23 11:27:38;;;;;;;0.57;0.50;;;8.50;99.90;;;;;;5032611;28;20973;-70
2023/12/23 11:30:06;;;;;;;0.70;0.70;;;8.50;99.90;;;;;;5032897;28;20783;-70
2023/12/23 11:32:33;;;;;;;0.97;0.87;;;8.50;99.90;;;;;;5032316;28;20421;-70
2023/12/23 11:34:59;;;;;;;0.83;0.83;;;8.60;99.90;;;;;;5033248;28;20934;-70
2023/12/23 11:37:47;;;;;;;0.60;0.60;;;8.70;99.90;;;;;;5032598;28;20607;-70
2023/12/23 11:40:15;;;;;;;0.60;0.60;;;8.70;99.90;;;;;;5032980;28;20170;-71
2023/12/23 11:42:42;;;;;;;0.63;0.63;;;8.70;99.90;;;;;;5032739;28;20428;-70
2023/12/23 11:45:09;;;;;;;0.70;0.70;;;8.80;99.90;;;;;;5032657;28;20428;-70
2023/12/23 11:47:35;;;;;;;0.57;0.50;;;8.80;99.90;;;;;;5032402;28;20465;-70
2023/12/23 11:50:00;;;;;;;0.67;0.57;;;8.80;99.90;;;;;;5032603;28;20429;-70
2023/12/23 11:52:28;;;;;;;0.50;0.40;;;8.80;99.90;;;;;;5032481;28;20166;-70
2023/12/23 11:54:54;;;;;;;0.60;0.60;;;8.80;99.90;;;;;;5032613;28;20190;-70
2023/12/23 11:57:19;;;;;;;0.60;0.50;;;8.80;99.90;;;;;;5032346;28;20480;-70
2023/12/23 11:59:45;;;;;;;1.23;0.60;;;8.80;99.90;;;;;;5032436;28;20472;-70
2023/12/23 12:02:11;;;;;;;0.67;0.60;;;8.90;99.90;;;;;;5032432;28;20174;-70
2023/12/23 12:04:37;;;;;;;0.83;0.50;;;8.90;99.90;;;;;;5032366;28;20174;-70
2023/12/23 12:07:03;;;;;;;0.63;0.53;;;8.90;99.90;;;;;;5031847;28;20704;-70
2023/12/23 12:09:29;;;;;;;1.00;0.50;;;8.80;99.90;;;;;;5032538;28;20171;-70
2023/12/23 12:11:54;;;;;;;0.50;0.50;;;8.90;99.90;;;;;;5032355;28;20464;-70
2023/12/23 12:14:20;;;;;;;0.60;0.50;;;8.90;99.90;;;;;;5032364;28;20448;-70
2023/12/23 12:16:45;;;;;;;0.50;0.50;;;8.90;99.90;;;;;;5031861;28;20204;-70
2023/12/23 12:19:13;;;;;;;0.40;0.40;;;8.80;99.90;;;;;;5030870;28;20190;-69
2023/12/23 12:21:38;;;;;;;0.40;0.40;;;8.70;99.90;;;;;;5032135;28;20674;-70
2023/12/23 12:24:05;;;;;;;1.93;0.77;;;8.80;99.90;;;;;;5032097;28;20413;-70
2023/12/23 12:26:30;;;;;;;0.50;0.40;;;8.80;99.90;;;;;;5031741;28;20206;-69
2023/12/23 12:28:56;;;;;;;0.80;0.60;;;8.90;99.90;;;;;;5032104;28;20415;-69
2023/12/23 12:31:22;;;;;;;2.00;0.57;;;8.90;99.90;;;;;;5032298;28;20170;-69
2023/12/23 12:33:49;;;;;;;0.53;0.50;;;9.00;99.90;;;;;;5032018;28;20471;-69
2023/12/23 12:36:16;;;;;;;0.47;0.40;;;9.00;99.90;;;;;;5031896;28;20488;-69
2023/12/23 12:38:43;;;;;;;5.70;0.70;;;9.00;99.90;;;;;;5031837;28;20421;-69
2023/12/23 12:41:10;;;;;;;0.73;0.53;;;9.00;99.90;;;;;;5030752;28;20427;-70
2023/12/23 12:43:43;;;;;;;0.63;0.63;;;9.10;99.90;;;;;;5033743;28;20424;-69
2023/12/23 12:46:09;;;;;;;0.67;0.60;;;9.20;99.90;;;;;;5035946;28;20530;-69
2023/12/23 12:48:35;;;;;;;0.60;0.50;;;9.20;99.90;;;;;;5035704;28;20469;-69
2023/12/23 12:51:01;;;;;;;0.70;0.70;;;9.30;99.90;;;;;;5035847;28;20420;-69
2023/12/23 12:53:30;;;;;;;0.60;0.57;;;9.30;99.90;;;;;;5036003;28;20782;-69